createdAt,value
2023-08-18T00:01:11.396Z,24.64
2023-08-18T00:03:38.781Z,24.45
2023-08-18T00:06:06.588Z,24.46
2023-08-18T00:08:33.355Z,24.28
2023-08-18T00:11:00.499Z,23.89
2023-08-18T00:13:27.266Z,23.72
2023-08-18T00:15:54.213Z,23.60
2023-08-18T00:18:21.015Z,23.79
2023-08-18T00:20:48.202Z,23.52
2023-08-18T00:23:15.007Z,23.45
2023-08-18T00:25:41.704Z,23.63
2023-08-18T00:28:08.604Z,23.72
2023-08-18T00:30:35.302Z,23.71
2023-08-18T00:33:02.335Z,23.72
2023-08-18T00:35:29.614Z,23.73
2023-08-18T00:37:56.371Z,23.88
2023-08-18T00:40:26.242Z,23.98
2023-08-18T00:42:53.353Z,23.91
2023-08-18T00:45:20.162Z,23.96
2023-08-18T00:47:47.186Z,23.99
2023-08-18T00:50:15.694Z,24.03
2023-08-18T00:52:43.846Z,23.87
2023-08-18T00:55:12.272Z,23.74
2023-08-18T00:57:40.380Z,23.76
2023-08-18T01:00:07.924Z,23.75
2023-08-18T01:02:35.148Z,23.70
2023-08-18T01:05:02.012Z,23.95
2023-08-18T01:07:28.821Z,24.03
2023-08-18T01:09:56.182Z,23.99
2023-08-18T01:13:00.931Z,23.63
2023-08-18T01:15:37.515Z,23.50
2023-08-18T01:18:05.975Z,23.50
2023-08-18T01:20:34.059Z,23.34
2023-08-18T01:23:02.241Z,23.30
2023-08-18T01:25:30.104Z,23.31
2023-08-18T01:27:59.324Z,23.37
2023-08-18T01:30:35.315Z,23.55
2023-08-18T01:33:21.628Z,23.55
2023-08-18T01:35:50.240Z,23.56
2023-08-18T01:38:20.086Z,23.51
2023-08-18T01:40:48.826Z,23.59
2023-08-18T01:43:15.605Z,23.66
2023-08-18T01:45:43.054Z,23.77
2023-08-18T01:48:10.778Z,23.79
2023-08-18T01:50:37.572Z,23.82
2023-08-18T01:53:04.569Z,23.84
2023-08-18T01:55:31.336Z,23.87
2023-08-18T02:00:24.758Z,23.92
2023-08-18T02:02:53.503Z,23.86
2023-08-18T02:05:20.131Z,23.67
2023-08-18T02:07:46.887Z,23.60
2023-08-18T02:10:13.676Z,23.72
2023-08-18T02:12:40.400Z,23.75
2023-08-18T02:15:07.808Z,23.82
2023-08-18T02:17:34.574Z,23.79
2023-08-18T02:20:05.035Z,23.77
2023-08-18T02:22:31.981Z,23.75
2023-08-18T02:24:58.781Z,23.73
2023-08-18T02:27:27.254Z,23.70
2023-08-18T02:29:54.459Z,23.61
2023-08-18T02:32:21.087Z,23.64
2023-08-18T02:34:47.819Z,23.44
2023-08-18T02:37:14.876Z,23.55
2023-08-18T02:39:41.636Z,23.46
2023-08-18T02:42:09.644Z,23.40
2023-08-18T02:44:36.383Z,23.33
2023-08-18T02:47:03.214Z,23.34
2023-08-18T02:49:29.964Z,23.42
2023-08-18T02:51:56.996Z,23.54
2023-08-18T02:54:25.063Z,23.56
2023-08-18T02:56:51.892Z,23.64
2023-08-18T02:59:19.126Z,23.66
2023-08-18T03:01:46.106Z,23.57
2023-08-18T03:04:15.440Z,23.45
2023-08-18T03:06:42.719Z,23.32
2023-08-18T03:09:09.437Z,22.98
2023-08-18T03:11:36.280Z,22.79
2023-08-18T03:14:03.620Z,22.61
2023-08-18T03:16:30.448Z,22.66
2023-08-18T03:18:57.082Z,22.77
2023-08-18T03:21:23.809Z,22.95
2023-08-18T03:23:50.607Z,23.09
2023-08-18T03:26:17.416Z,22.90
2023-08-18T03:28:44.977Z,22.84
2023-08-18T03:31:11.911Z,22.74
2023-08-18T03:33:38.958Z,22.80
2023-08-18T03:36:09.158Z,22.65
2023-08-18T03:38:37.225Z,22.76
2023-08-18T03:41:05.745Z,22.80
2023-08-18T03:43:36.475Z,22.73
2023-08-18T03:46:26.557Z,22.78
2023-08-18T03:48:56.833Z,22.83
2023-08-18T03:51:23.960Z,22.75
2023-08-18T03:53:50.811Z,22.62
2023-08-18T03:56:17.654Z,22.51
2023-08-18T03:58:44.944Z,22.49
2023-08-18T04:01:12.182Z,22.50
2023-08-18T04:03:43.797Z,22.69
2023-08-18T04:06:15.019Z,22.92
2023-08-18T04:08:46.935Z,22.96
2023-08-18T04:11:15.048Z,22.96
2023-08-18T04:13:41.870Z,23.09
2023-08-18T04:16:09.364Z,23.25
2023-08-18T04:18:38.106Z,23.30
2023-08-18T04:21:05.849Z,23.42
2023-08-18T04:23:32.650Z,23.21
2023-08-18T04:25:59.369Z,23.25
2023-08-18T04:28:26.692Z,23.25
2023-08-18T04:30:53.478Z,23.61
2023-08-18T04:33:28.862Z,23.75
2023-08-18T04:36:00.049Z,23.90
2023-08-18T04:38:29.121Z,23.96
2023-08-18T04:41:02.810Z,24.08
2023-08-18T04:43:31.539Z,24.02
2023-08-18T04:45:59.125Z,24.26
2023-08-18T04:48:26.738Z,24.39
2023-08-18T04:50:53.933Z,24.53
2023-08-18T04:53:21.178Z,24.52
2023-08-18T04:55:47.970Z,24.40
2023-08-18T04:58:14.796Z,24.51
2023-08-18T05:00:43.206Z,24.54
2023-08-18T05:03:14.149Z,24.54
2023-08-18T05:06:04.181Z,24.84
2023-08-18T05:08:32.101Z,24.83
2023-08-18T05:11:07.348Z,24.72
2023-08-18T05:13:35.307Z,24.66
2023-08-18T05:16:02.811Z,24.42
2023-08-18T05:18:30.234Z,24.35
2023-08-18T05:20:57.869Z,24.48
2023-08-18T05:23:25.470Z,24.64
2023-08-18T05:25:55.333Z,24.54
2023-08-18T05:28:23.073Z,24.45
2023-08-18T05:30:50.615Z,24.74
2023-08-18T05:33:17.725Z,24.84
2023-08-18T05:35:44.980Z,24.89
2023-08-18T05:38:12.185Z,24.81
2023-08-18T05:40:42.819Z,24.88
2023-08-18T05:43:13.729Z,24.95
2023-08-18T05:45:40.940Z,25.04
2023-08-18T05:48:07.985Z,24.88
2023-08-18T05:50:35.496Z,24.86
2023-08-18T05:53:03.460Z,25.01
2023-08-18T05:55:30.347Z,24.94
2023-08-18T05:57:59.476Z,25.08
2023-08-18T06:00:26.363Z,25.21
2023-08-18T06:02:53.767Z,24.97
2023-08-18T06:05:20.578Z,25.11
2023-08-18T06:07:47.239Z,24.94
2023-08-18T06:10:13.953Z,24.79
2023-08-18T06:12:40.744Z,24.73
2023-08-18T06:15:08.415Z,24.81
2023-08-18T06:17:35.713Z,24.85
2023-08-18T06:20:03.544Z,24.88
2023-08-18T06:22:30.545Z,24.93
2023-08-18T06:24:57.486Z,25.08
2023-08-18T06:27:24.142Z,25.06
2023-08-18T06:29:50.845Z,25.17
2023-08-18T06:32:17.658Z,25.20
2023-08-18T06:34:44.219Z,25.30
2023-08-18T06:37:11.198Z,25.68
2023-08-18T06:39:37.996Z,26.08
2023-08-18T06:42:04.787Z,26.26
2023-08-18T06:44:33.277Z,26.11
2023-08-18T06:46:59.969Z,26.35
2023-08-18T06:49:26.725Z,26.28
2023-08-18T06:51:53.283Z,26.72
2023-08-18T06:54:20.066Z,26.79
2023-08-18T06:56:46.666Z,26.62
2023-08-18T06:59:14.514Z,26.96
2023-08-18T07:01:42.213Z,27.05
2023-08-18T07:04:09.328Z,27.40
2023-08-18T07:06:36.248Z,27.81
2023-08-18T07:09:05.079Z,28.06
2023-08-18T07:11:31.937Z,27.66
2023-08-18T07:13:58.656Z,27.75
2023-08-18T07:16:25.469Z,28.21
2023-08-18T07:18:52.236Z,28.22
2023-08-18T07:21:18.994Z,28.52
2023-08-18T07:23:45.542Z,28.60
2023-08-18T07:26:12.289Z,28.72
2023-08-18T07:28:39.118Z,28.58
2023-08-18T07:31:06.255Z,28.63
2023-08-18T07:33:33.126Z,28.31
2023-08-18T07:35:59.909Z,28.16
2023-08-18T07:38:26.751Z,28.61
2023-08-18T07:40:54.756Z,28.63
2023-08-18T07:43:21.465Z,28.79
2023-08-18T07:45:48.301Z,29.26
2023-08-18T07:48:15.105Z,29.90
2023-08-18T07:50:42.628Z,29.46
2023-08-18T07:53:09.372Z,29.89
2023-08-18T07:55:37.789Z,29.71
2023-08-18T07:58:05.803Z,30.18
2023-08-18T08:00:33.987Z,29.95
2023-08-18T08:03:01.120Z,30.43
2023-08-18T08:05:27.963Z,30.97
2023-08-18T08:07:56.625Z,31.22
2023-08-18T08:10:25.608Z,31.50
2023-08-18T08:12:52.328Z,31.65
2023-08-18T08:15:19.079Z,32.01
2023-08-18T08:17:46.060Z,32.32
2023-08-18T08:20:17.053Z,32.61
2023-08-18T08:22:45.589Z,32.91
2023-08-18T08:25:12.459Z,33.05
2023-08-18T08:27:39.430Z,33.31
2023-08-18T08:30:11.444Z,33.68
2023-08-18T08:32:38.668Z,33.35
2023-08-18T08:35:05.890Z,33.60
2023-08-18T08:37:38.082Z,33.30
2023-08-18T08:40:06.376Z,33.48
2023-08-18T08:42:33.125Z,33.54
2023-08-18T08:44:59.871Z,33.43
2023-08-18T08:47:27.474Z,32.98
2023-08-18T08:50:02.854Z,33.00
2023-08-18T08:52:36.377Z,33.04
2023-08-18T08:55:07.614Z,33.22
2023-08-18T08:57:35.225Z,33.20
2023-08-18T09:00:02.013Z,33.43
2023-08-18T09:02:29.218Z,34.02
2023-08-18T09:05:01.270Z,34.45
2023-08-18T09:07:29.384Z,34.64
2023-08-18T09:09:56.971Z,34.61
2023-08-18T09:12:32.573Z,35.14
2023-08-18T09:15:00.187Z,35.20
2023-08-18T09:17:33.358Z,35.30
2023-08-18T09:20:01.265Z,35.23
2023-08-18T09:22:29.962Z,35.41
2023-08-18T09:24:58.282Z,35.16
2023-08-18T09:27:25.543Z,35.05
2023-08-18T09:29:53.664Z,35.43
2023-08-18T09:32:23.747Z,35.82
2023-08-18T09:34:57.072Z,35.70
2023-08-18T09:37:31.411Z,35.88
2023-08-18T09:39:58.532Z,35.86
2023-08-18T09:42:25.478Z,35.22
2023-08-18T09:44:53.280Z,35.00
2023-08-18T09:47:22.813Z,35.60
2023-08-18T09:49:51.733Z,35.37
2023-08-18T09:52:20.381Z,35.68
2023-08-18T09:55:07.233Z,35.65
2023-08-18T09:58:28.363Z,36.00
2023-08-18T10:00:58.754Z,36.27
2023-08-18T10:03:29.618Z,36.72
2023-08-18T10:05:56.555Z,36.78
2023-08-18T10:08:25.830Z,36.34
2023-08-18T10:10:52.831Z,36.09
2023-08-18T10:13:20.742Z,35.82
2023-08-18T10:15:48.659Z,36.24
2023-08-18T10:18:15.589Z,35.95
2023-08-18T10:20:53.310Z,35.41
2023-08-18T10:23:20.925Z,35.30
2023-08-18T10:25:52.440Z,35.14
2023-08-18T10:28:20.780Z,35.24
2023-08-18T10:31:05.157Z,35.77
2023-08-18T10:33:38.872Z,36.14
2023-08-18T10:36:07.555Z,36.52
2023-08-18T10:38:37.208Z,37.06
2023-08-18T10:41:04.724Z,37.14
2023-08-18T10:43:42.485Z,36.65
2023-08-18T10:46:14.584Z,36.92
2023-08-18T10:48:41.443Z,37.31
2023-08-18T10:51:08.631Z,37.55
2023-08-18T10:53:38.570Z,37.89
2023-08-18T10:56:06.171Z,37.82
2023-08-18T10:58:35.599Z,37.43
2023-08-18T11:01:03.200Z,37.63
2023-08-18T11:03:30.137Z,37.90
2023-08-18T11:05:58.456Z,38.10
2023-08-18T11:08:26.468Z,37.73
2023-08-18T11:10:54.547Z,37.47
2023-08-18T11:13:30.088Z,37.78
2023-08-18T11:15:57.977Z,38.00
2023-08-18T11:18:27.165Z,37.47
2023-08-18T11:20:56.646Z,36.97
2023-08-18T11:23:23.631Z,37.45
2023-08-18T11:25:50.402Z,37.63
2023-08-18T11:28:18.352Z,37.98
2023-08-18T11:30:45.464Z,38.02
2023-08-18T11:33:12.649Z,38.20
2023-08-18T11:35:39.941Z,38.34
2023-08-18T11:38:09.177Z,38.62
2023-08-18T11:40:39.655Z,38.91
2023-08-18T11:43:11.745Z,38.61
2023-08-18T11:45:39.375Z,38.53
2023-08-18T11:48:07.370Z,38.70
2023-08-18T11:50:38.553Z,38.49
2023-08-18T11:53:07.300Z,37.87
2023-08-18T11:55:40.001Z,37.46
2023-08-18T11:58:11.964Z,37.25
2023-08-18T12:00:41.339Z,37.57
2023-08-18T12:03:20.876Z,38.00
2023-08-18T12:05:47.718Z,37.95
2023-08-18T12:08:14.651Z,38.25
2023-08-18T12:10:43.531Z,37.45
2023-08-18T12:13:10.328Z,37.52
2023-08-18T12:15:37.193Z,37.37
2023-08-18T12:18:04.940Z,37.79
2023-08-18T12:20:33.049Z,38.29
2023-08-18T12:23:00.149Z,38.61
2023-08-18T12:25:26.998Z,38.34
2023-08-18T12:27:53.736Z,38.52
2023-08-18T12:30:21.176Z,38.82
2023-08-18T12:32:50.754Z,38.75
2023-08-18T12:35:18.818Z,38.86
2023-08-18T12:37:45.983Z,38.86
2023-08-18T12:40:12.864Z,38.46
2023-08-18T12:42:40.243Z,38.61
2023-08-18T12:45:08.798Z,38.82
2023-08-18T12:47:36.033Z,38.93
2023-08-18T12:50:03.957Z,38.61
2023-08-18T12:52:31.059Z,38.26
2023-08-18T12:54:58.071Z,38.28
2023-08-18T12:57:24.960Z,38.72
2023-08-18T12:59:51.746Z,39.03
2023-08-18T13:02:18.476Z,39.54
2023-08-18T13:04:45.382Z,39.52
2023-08-18T13:07:12.126Z,39.13
2023-08-18T13:09:38.866Z,38.88
2023-08-18T13:12:08.042Z,39.39
2023-08-18T13:14:35.395Z,39.66
2023-08-18T13:17:04.892Z,39.53
2023-08-18T13:19:32.685Z,39.22
2023-08-18T13:21:59.678Z,39.27
2023-08-18T13:24:27.043Z,38.74
2023-08-18T13:26:54.854Z,38.63
2023-08-18T13:29:25.365Z,38.91
2023-08-18T13:31:54.150Z,39.04
2023-08-18T13:34:21.448Z,39.19
2023-08-18T13:36:48.413Z,39.15
2023-08-18T13:39:16.898Z,38.96
2023-08-18T13:41:43.876Z,38.69
2023-08-18T13:44:10.910Z,38.21
2023-08-18T13:46:37.913Z,37.83
2023-08-18T13:49:04.979Z,37.48
2023-08-18T13:51:31.693Z,37.00
2023-08-18T13:53:58.415Z,37.13
2023-08-18T13:56:25.211Z,37.04
2023-08-18T13:58:51.907Z,36.90
2023-08-18T14:01:19.023Z,36.79
2023-08-18T14:03:45.970Z,36.53
2023-08-18T14:06:12.713Z,36.31
2023-08-18T14:08:39.540Z,36.16
2023-08-18T14:11:06.798Z,36.11
2023-08-18T14:13:36.706Z,36.19
2023-08-18T14:16:04.072Z,36.07
2023-08-18T14:18:31.014Z,36.17
2023-08-18T14:20:57.754Z,36.14
2023-08-18T14:23:24.540Z,36.24
2023-08-18T14:25:51.416Z,36.43
2023-08-18T14:28:18.145Z,36.94
2023-08-18T14:30:44.965Z,36.98
2023-08-18T14:33:11.745Z,37.37
2023-08-18T14:35:38.540Z,37.47
2023-08-18T14:38:05.413Z,37.99
2023-08-18T14:40:35.051Z,38.30
2023-08-18T14:43:16.142Z,38.63
2023-08-18T14:45:45.435Z,38.54
2023-08-18T14:48:12.861Z,38.26
2023-08-18T14:50:40.210Z,38.21
2023-08-18T14:53:08.292Z,38.40
2023-08-18T14:55:35.091Z,38.70
2023-08-18T14:58:01.823Z,39.03
2023-08-18T15:00:35.715Z,39.18
2023-08-18T15:03:04.416Z,39.13
2023-08-18T15:05:31.298Z,39.29
2023-08-18T15:07:58.303Z,39.56
2023-08-18T15:10:25.048Z,39.83
2023-08-18T15:12:51.878Z,39.86
2023-08-18T15:15:18.805Z,39.87
2023-08-18T15:17:45.625Z,39.76
2023-08-18T15:20:12.502Z,39.63
2023-08-18T15:22:39.434Z,39.33
2023-08-18T15:25:06.552Z,39.24
2023-08-18T15:27:35.107Z,39.13
2023-08-18T15:30:03.246Z,38.67
2023-08-18T15:32:30.046Z,38.51
2023-08-18T15:34:56.821Z,38.30
2023-08-18T15:37:23.552Z,38.27
2023-08-18T15:39:53.556Z,38.07
2023-08-18T15:42:20.422Z,38.15
2023-08-18T15:44:47.175Z,38.21
2023-08-18T15:47:14.016Z,38.31
2023-08-18T15:49:40.809Z,38.56
2023-08-18T15:52:07.510Z,38.89
2023-08-18T15:54:34.346Z,38.80
2023-08-18T15:57:01.126Z,39.04
2023-08-18T15:59:31.986Z,38.53
2023-08-18T16:01:59.205Z,38.06
2023-08-18T16:04:26.200Z,37.82
2023-08-18T16:06:53.085Z,36.98
2023-08-18T16:09:19.988Z,36.75
2023-08-18T16:11:46.761Z,36.42
2023-08-18T16:14:39.184Z,36.34
2023-08-18T16:17:00.333Z,36.03
2023-08-18T16:19:28.907Z,36.07
2023-08-18T16:21:55.718Z,35.78
2023-08-18T16:24:23.245Z,35.47
2023-08-18T16:26:52.367Z,34.82
2023-08-18T16:29:19.143Z,34.26
2023-08-18T16:31:45.924Z,33.97
2023-08-18T16:34:12.649Z,33.71
2023-08-18T16:36:39.859Z,33.47
2023-08-18T16:39:06.975Z,33.21
2023-08-18T16:41:33.691Z,32.79
2023-08-18T16:44:00.459Z,32.72
2023-08-18T16:46:27.285Z,32.50
2023-08-18T16:48:55.196Z,32.32
2023-08-18T16:51:22.072Z,32.31
2023-08-18T16:53:48.902Z,32.16
2023-08-18T16:56:15.751Z,32.19
2023-08-18T16:58:42.574Z,32.07
2023-08-18T17:01:09.374Z,31.91
2023-08-18T17:03:36.106Z,31.68
2023-08-18T17:06:02.911Z,31.70
2023-08-18T17:08:29.606Z,31.73
2023-08-18T17:10:56.708Z,31.64
2023-08-18T17:13:24.202Z,31.31
2023-08-18T17:15:53.004Z,31.19
2023-08-18T17:18:20.061Z,30.86
2023-08-18T17:20:47.359Z,30.83
2023-08-18T17:23:14.451Z,30.56
2023-08-18T17:25:41.447Z,30.15
2023-08-18T17:28:08.303Z,29.26
2023-08-18T17:30:35.105Z,29.19
2023-08-18T17:33:02.019Z,29.19
2023-08-18T17:35:28.768Z,29.19
2023-08-18T17:37:57.486Z,29.48
2023-08-18T17:40:24.336Z,29.53
2023-08-18T17:42:51.212Z,29.30
2023-08-18T17:45:18.018Z,29.03
2023-08-18T17:47:44.787Z,28.79
2023-08-18T17:50:11.548Z,28.59
2023-08-18T17:52:38.348Z,28.45
2023-08-18T17:55:05.385Z,28.35
2023-08-18T17:57:32.239Z,28.58
2023-08-18T17:59:59.266Z,28.67
2023-08-18T18:02:26.357Z,28.65
2023-08-18T18:04:54.796Z,28.32
2023-08-18T18:07:21.531Z,28.42
2023-08-18T18:09:48.310Z,27.89
2023-08-18T18:12:15.956Z,27.94
2023-08-18T18:14:47.120Z,27.50
2023-08-18T18:17:15.783Z,27.32
2023-08-18T18:19:42.816Z,27.27
2023-08-18T18:22:10.289Z,27.45
2023-08-18T18:24:37.736Z,27.55
2023-08-18T18:27:05.521Z,27.50
2023-08-18T18:29:32.265Z,27.26
2023-08-18T18:31:59.065Z,27.09
2023-08-18T18:34:25.914Z,27.15
2023-08-18T18:36:52.703Z,27.62
2023-08-18T18:39:19.444Z,26.78
2023-08-18T18:41:46.209Z,26.45
2023-08-18T18:44:12.980Z,26.35
2023-08-18T18:46:40.665Z,26.33
2023-08-18T18:49:07.433Z,26.53
2023-08-18T18:51:34.181Z,26.45
2023-08-18T18:54:01.070Z,26.57
2023-08-18T18:56:28.620Z,26.53
2023-08-18T18:58:55.514Z,26.27
2023-08-18T19:01:22.322Z,26.10
2023-08-18T19:03:49.044Z,26.18
2023-08-18T19:06:15.827Z,26.35
2023-08-18T19:08:43.453Z,26.43
2023-08-18T19:11:10.223Z,26.38
2023-08-18T19:13:36.965Z,26.27
2023-08-18T19:16:08.165Z,26.14
2023-08-18T19:18:36.113Z,26.34
2023-08-18T19:21:03.064Z,26.24
2023-08-18T19:23:36.718Z,25.84
2023-08-18T19:26:04.013Z,25.72
2023-08-18T19:28:35.538Z,25.83
2023-08-18T19:31:07.764Z,25.74
2023-08-18T19:33:35.096Z,25.51
2023-08-18T19:36:02.638Z,25.56
2023-08-18T19:38:29.530Z,25.41
2023-08-18T19:40:56.189Z,25.88
2023-08-18T19:43:23.537Z,25.84
2023-08-18T19:45:57.771Z,25.78
2023-08-18T19:48:25.093Z,25.72
2023-08-18T19:50:56.035Z,25.61
2023-08-18T19:53:26.297Z,25.60
2023-08-18T19:55:53.057Z,25.59
2023-08-18T19:58:20.010Z,25.48
2023-08-18T20:00:47.427Z,25.37
2023-08-18T20:03:14.452Z,25.32
2023-08-18T20:05:41.250Z,25.33
2023-08-18T20:08:09.665Z,25.31
2023-08-18T20:10:36.966Z,25.18
2023-08-18T20:13:04.753Z,25.11
2023-08-18T20:15:31.942Z,25.04
2023-08-18T20:17:58.782Z,24.99
2023-08-18T20:20:25.859Z,25.02
2023-08-18T20:22:52.892Z,25.06
2023-08-18T20:25:19.738Z,25.15
2023-08-18T20:27:46.613Z,25.31
2023-08-18T20:30:13.559Z,25.53
2023-08-18T20:32:40.707Z,25.73
2023-08-18T20:35:09.033Z,25.69
2023-08-18T20:37:35.798Z,25.62
2023-08-18T20:40:02.555Z,25.88
2023-08-18T20:42:29.438Z,26.11
2023-08-18T20:44:56.485Z,26.22
2023-08-18T20:47:23.191Z,25.68
2023-08-18T20:49:49.865Z,25.59
2023-08-18T20:52:16.633Z,25.40
2023-08-18T20:54:43.446Z,25.39
2023-08-18T20:57:10.110Z,25.60
2023-08-18T20:59:36.931Z,25.48
2023-08-18T21:02:03.841Z,25.16
2023-08-18T21:04:31.281Z,25.31
2023-08-18T21:06:58.133Z,25.43
2023-08-18T21:09:25.619Z,25.47
2023-08-18T21:11:52.473Z,25.43
2023-08-18T21:14:19.041Z,25.44
2023-08-18T21:16:45.772Z,25.50
2023-08-18T21:19:12.445Z,25.39
2023-08-18T21:21:39.247Z,25.22
2023-08-18T21:24:07.508Z,25.23
2023-08-18T21:26:34.692Z,25.10
2023-08-18T21:29:02.533Z,24.88
2023-08-18T21:31:29.266Z,24.83
2023-08-18T21:33:56.004Z,24.99
2023-08-18T21:36:25.453Z,25.02
2023-08-18T21:38:53.209Z,24.81
2023-08-18T21:41:20.463Z,24.55
2023-08-18T21:43:47.290Z,24.51
2023-08-18T21:46:14.033Z,24.75
2023-08-18T21:48:42.071Z,24.18
2023-08-18T21:51:10.436Z,24.23
2023-08-18T21:53:37.221Z,24.29
2023-08-18T21:56:04.552Z,24.26
2023-08-18T21:58:31.824Z,24.28
2023-08-18T22:00:59.770Z,24.33
2023-08-18T22:03:27.322Z,24.41
2023-08-18T22:05:55.659Z,24.49
2023-08-18T22:08:22.805Z,24.47
2023-08-18T22:10:49.560Z,24.41
2023-08-18T22:13:16.421Z,24.30
2023-08-18T22:15:43.059Z,24.17
2023-08-18T22:18:10.252Z,23.80
2023-08-18T22:20:37.063Z,23.71
2023-08-18T22:23:04.998Z,23.84
2023-08-18T22:25:32.273Z,23.87
2023-08-18T22:27:59.501Z,24.21
2023-08-18T22:30:26.353Z,24.16
2023-08-18T22:32:53.220Z,24.01
2023-08-18T22:35:19.846Z,23.67
2023-08-18T22:37:46.649Z,23.51
2023-08-18T22:40:13.574Z,23.49
2023-08-18T22:42:40.338Z,23.47
2023-08-18T22:45:10.960Z,23.56
2023-08-18T22:47:39.697Z,23.74
2023-08-18T22:50:07.515Z,23.68
2023-08-18T22:52:34.971Z,23.37
2023-08-18T22:55:02.292Z,23.88
2023-08-18T22:57:29.532Z,23.99
2023-08-18T22:59:56.674Z,24.40
2023-08-18T23:02:23.404Z,24.38
2023-08-18T23:04:50.133Z,24.28
2023-08-18T23:07:18.451Z,24.42
2023-08-18T23:09:45.959Z,24.49
2023-08-18T23:12:12.740Z,24.53
2023-08-18T23:14:39.710Z,24.49
2023-08-18T23:17:06.716Z,24.31
2023-08-18T23:19:34.406Z,24.24
2023-08-18T23:22:01.154Z,24.48
2023-08-18T23:24:27.914Z,24.66
2023-08-18T23:26:54.655Z,24.72
2023-08-18T23:29:21.530Z,24.53
2023-08-18T23:31:48.444Z,24.18
2023-08-18T23:34:15.175Z,23.81
2023-08-18T23:36:42.140Z,23.66
2023-08-18T23:39:10.090Z,23.56
2023-08-18T23:41:37.282Z,23.55
2023-08-18T23:44:04.633Z,23.37
2023-08-18T23:46:31.454Z,23.63
2023-08-18T23:48:58.215Z,23.88
2023-08-18T23:51:25.004Z,23.99
2023-08-18T23:53:51.857Z,23.99
2023-08-18T23:56:18.424Z,24.06
2023-08-18T23:58:45.332Z,23.82
